Time;durP1;ratioP1;P1;durP2;ratioP2;P2;SDS_P1;SDS_P2;PMS_P1;PMS_P2;Temp;Humidity;BMP_temperature;BMP_pressure;BME280_temperature;BME280_humidity;BME280_pressure;Samples;Min_cycle;Max_cycle;Signal;HPM_P1;HPM_P2
2023/04/25 00:00:28;;;;;;;29.17;5.20;;;6.60;99.90;;;;;;4942063;28;20524;-66
2023/04/25 00:02:56;;;;;;;26.30;5.05;;;6.50;99.90;;;;;;4916667;28;20508;-66
2023/04/25 00:05:22;;;;;;;27.52;4.85;;;6.60;99.90;;;;;;4930375;28;20050;-66
2023/04/25 00:07:49;;;;;;;27.92;4.72;;;6.50;99.90;;;;;;4935944;28;20070;-66
2023/04/25 00:10:15;;;;;;;24.95;5.22;;;6.50;99.90;;;;;;4932645;28;20090;-66
2023/04/25 00:12:41;;;;;;;19.58;4.65;;;6.40;99.90;;;;;;4932803;28;20149;-66
2023/04/25 00:15:08;;;;;;;24.98;5.22;;;6.50;99.90;;;;;;4916324;28;20053;-66
2023/04/25 00:17:34;;;;;;;23.67;4.60;;;6.40;99.90;;;;;;4936449;28;20054;-66
2023/04/25 00:20:04;;;;;;;23.38;4.63;;;6.40;99.90;;;;;;4933386;28;20124;-66
2023/04/25 00:22:30;;;;;;;28.83;5.60;;;6.50;99.90;;;;;;4945255;28;20125;-66
2023/04/25 00:24:57;;;;;;;22.85;4.60;;;6.40;99.90;;;;;;4932314;28;20047;-66
2023/04/25 00:27:22;;;;;;;26.10;4.03;;;6.50;99.90;;;;;;4905177;28;20038;-66
2023/04/25 00:29:48;;;;;;;20.65;4.30;;;6.50;99.90;;;;;;4928969;28;20575;-66
2023/04/25 00:32:14;;;;;;;23.67;4.45;;;6.50;99.90;;;;;;4926840;28;20061;-66
2023/04/25 00:34:39;;;;;;;18.25;3.63;;;6.40;99.90;;;;;;4931563;28;20050;-66
2023/04/25 00:37:05;;;;;;;12.57;3.53;;;6.40;99.90;;;;;;4917839;28;20085;-66
2023/04/25 00:39:31;;;;;;;17.17;3.78;;;6.40;99.90;;;;;;4948897;28;20197;-66
2023/04/25 00:41:58;;;;;;;15.85;3.47;;;6.30;99.90;;;;;;4935203;28;20061;-66
2023/04/25 00:44:24;;;;;;;19.30;3.55;;;6.30;99.90;;;;;;4929222;28;20046;-66
2023/04/25 00:46:50;;;;;;;17.13;3.58;;;6.30;99.90;;;;;;4935378;28;20509;-66
2023/04/25 00:49:16;;;;;;;22.52;3.47;;;6.30;99.90;;;;;;4927706;28;20126;-66
2023/04/25 00:51:46;;;;;;;24.80;4.20;;;6.30;99.90;;;;;;4934509;28;20200;-66
2023/04/25 00:54:15;;;;;;;14.70;3.35;;;6.30;99.90;;;;;;4947990;28;20192;-66
2023/04/25 00:56:41;;;;;;;20.45;3.53;;;6.20;99.90;;;;;;4923440;28;20054;-66
2023/04/25 00:59:09;;;;;;;21.77;3.42;;;6.20;99.90;;;;;;4932366;28;20516;-65
2023/04/25 01:01:35;;;;;;;14.23;3.55;;;6.20;99.90;;;;;;4933757;28;20120;-66
2023/04/25 01:04:02;;;;;;;16.35;2.65;;;6.20;99.90;;;;;;4936698;28;20039;-66
2023/04/25 01:06:28;;;;;;;16.73;3.38;;;6.20;99.90;;;;;;4922790;28;20108;-66
2023/04/25 01:08:54;;;;;;;19.13;3.20;;;6.20;99.90;;;;;;4936665;28;20177;-66
2023/04/25 01:11:20;;;;;;;14.68;3.13;;;6.20;99.90;;;;;;4937757;28;20108;-66
2023/04/25 01:13:46;;;;;;;16.85;3.20;;;6.20;99.90;;;;;;4936429;28;20088;-66
2023/04/25 01:16:11;;;;;;;19.98;3.30;;;6.10;99.90;;;;;;4934280;28;20143;-66
2023/04/25 01:18:40;;;;;;;16.80;3.47;;;6.10;99.90;;;;;;4919708;28;20677;-66
2023/04/25 01:21:10;;;;;;;13.02;3.00;;;6.10;99.90;;;;;;4933385;28;20046;-66
2023/04/25 01:23:38;;;;;;;15.80;3.05;;;6.10;99.90;;;;;;4937798;28;20046;-66
2023/04/25 01:26:04;;;;;;;17.75;3.05;;;6.10;99.90;;;;;;4919503;28;21428;-66
2023/04/25 01:28:30;;;;;;;18.95;3.35;;;6.00;99.90;;;;;;4935402;28;20093;-66
2023/04/25 01:30:57;;;;;;;18.05;2.38;;;6.00;99.90;;;;;;4924188;28;20050;-66
2023/04/25 01:33:22;;;;;;;16.48;3.13;;;6.00;99.90;;;;;;4934970;28;20069;-66
2023/04/25 01:35:48;;;;;;;15.68;3.03;;;6.00;99.90;;;;;;4934677;28;20046;-66
2023/04/25 01:38:14;;;;;;;17.45;3.17;;;5.90;99.90;;;;;;4959045;28;20043;-66
2023/04/25 01:40:40;;;;;;;17.63;3.47;;;6.00;99.90;;;;;;4935180;28;20768;-66
2023/04/25 01:43:11;;;;;;;23.27;3.47;;;5.90;99.90;;;;;;4918443;28;20073;-66
2023/04/25 01:45:41;;;;;;;18.65;3.95;;;5.90;99.90;;;;;;4936491;28;20048;-66
2023/04/25 01:48:08;;;;;;;21.20;4.15;;;6.00;99.90;;;;;;4934790;28;20152;-66
2023/04/25 01:50:34;;;;;;;21.45;3.80;;;5.90;99.90;;;;;;4935291;28;20065;-66
2023/04/25 01:53:01;;;;;;;15.75;3.53;;;6.00;99.90;;;;;;4919335;28;20085;-66
2023/04/25 01:55:27;;;;;;;25.08;4.28;;;6.00;99.90;;;;;;4934686;28;20056;-66
2023/04/25 01:57:53;;;;;;;20.60;3.70;;;6.00;99.90;;;;;;4935370;28;20042;-66
2023/04/25 02:00:19;;;;;;;18.73;3.45;;;6.00;99.90;;;;;;4931727;28;20410;-66
2023/04/25 02:02:45;;;;;;;20.75;4.35;;;5.90;99.90;;;;;;4929913;28;20047;-66
2023/04/25 02:05:11;;;;;;;17.55;3.55;;;5.90;99.90;;;;;;4939518;28;20157;-66
2023/04/25 02:07:37;;;;;;;21.95;3.20;;;6.00;99.90;;;;;;4915592;28;20091;-66
2023/04/25 02:10:03;;;;;;;23.38;4.10;;;5.90;99.90;;;;;;4934345;28;20057;-66
2023/04/25 02:12:30;;;;;;;30.05;3.70;;;5.90;99.90;;;;;;4915602;28;20432;-66
2023/04/25 02:14:56;;;;;;;29.52;3.90;;;5.90;99.90;;;;;;4919410;28;20054;-66
2023/04/25 02:17:22;;;;;;;21.95;3.50;;;5.80;99.90;;;;;;4942198;28;20053;-66
2023/04/25 02:19:48;;;;;;;16.67;3.22;;;5.80;99.90;;;;;;4944129;28;20537;-66
2023/04/25 02:22:14;;;;;;;22.10;3.38;;;5.80;99.90;;;;;;4931990;28;20398;-66
2023/04/25 02:24:39;;;;;;;20.88;3.28;;;5.70;99.90;;;;;;4934711;28;20051;-66
2023/04/25 02:27:05;;;;;;;14.13;2.88;;;5.60;99.90;;;;;;4930217;28;20493;-66
2023/04/25 02:29:31;;;;;;;20.27;3.30;;;5.60;99.90;;;;;;4932625;28;20057;-66
2023/04/25 02:31:57;;;;;;;18.05;3.15;;;5.70;99.90;;;;;;4927014;28;20094;-66
2023/04/25 02:34:23;;;;;;;18.25;3.50;;;5.50;99.90;;;;;;4935273;28;20046;-66
2023/04/25 02:36:50;;;;;;;20.52;3.05;;;5.60;99.90;;;;;;4937280;28;20142;-66
2023/04/25 02:39:16;;;;;;;18.02;3.13;;;5.70;99.90;;;;;;4932418;28;20181;-66
2023/04/25 02:41:42;;;;;;;18.20;2.75;;;5.50;99.90;;;;;;4934843;28;20058;-65
2023/04/25 02:44:08;;;;;;;17.75;3.13;;;5.50;99.90;;;;;;4936356;28;20762;-66
2023/04/25 02:46:34;;;;;;;17.17;3.25;;;5.50;99.90;;;;;;4936890;28;20038;-66
2023/04/25 02:48:59;;;;;;;13.80;2.78;;;5.50;99.90;;;;;;4933186;28;20054;-66
2023/04/25 02:51:26;;;;;;;17.08;2.90;;;5.50;99.90;;;;;;4935361;28;20061;-66
2023/04/25 02:53:51;;;;;;;18.58;2.83;;;5.50;99.90;;;;;;4939846;28;20051;-66
2023/04/25 02:56:17;;;;;;;15.65;2.78;;;5.50;99.90;;;;;;4920316;28;20046;-65
2023/04/25 02:58:43;;;;;;;20.52;3.33;;;5.50;99.90;;;;;;4941558;28;20223;-66
2023/04/25 03:01:09;;;;;;;14.85;2.53;;;5.50;99.90;;;;;;4937707;28;20494;-65
2023/04/25 03:03:34;;;;;;;15.13;2.92;;;5.60;99.90;;;;;;4921893;28;20043;-66
2023/04/25 03:06:00;;;;;;;18.90;2.88;;;5.50;99.90;;;;;;4923719;28;20049;-66
2023/04/25 03:08:29;;;;;;;12.43;2.33;;;5.60;99.90;;;;;;4949156;28;22455;-66
2023/04/25 03:10:55;;;;;;;24.67;3.83;;;5.50;99.90;;;;;;4927426;28;20064;-66
2023/04/25 03:13:21;;;;;;;25.58;3.42;;;5.50;99.90;;;;;;4933161;28;20050;-66
2023/04/25 03:15:46;;;;;;;19.17;2.70;;;5.50;99.90;;;;;;4933895;28;20128;-66
2023/04/25 03:18:12;;;;;;;16.23;2.70;;;5.50;99.90;;;;;;4929928;28;20046;-66
2023/04/25 03:20:39;;;;;;;12.65;2.30;;;5.40;99.90;;;;;;4935433;28;20050;-66
2023/04/25 03:23:05;;;;;;;15.40;2.53;;;5.40;99.90;;;;;;4934700;28;20108;-66
2023/04/25 03:25:31;;;;;;;11.07;3.30;;;5.40;99.90;;;;;;4932030;28;20502;-66
2023/04/25 03:27:56;;;;;;;12.77;2.88;;;5.30;99.90;;;;;;4936302;28;20057;-66
2023/04/25 03:30:22;;;;;;;15.13;2.70;;;5.30;99.90;;;;;;4919425;28;20627;-66
2023/04/25 03:32:48;;;;;;;15.32;2.90;;;5.20;99.90;;;;;;4929791;28;20056;-66
2023/04/25 03:35:14;;;;;;;13.40;2.97;;;5.10;99.90;;;;;;4932941;28;20042;-65
2023/04/25 03:37:40;;;;;;;18.13;2.67;;;5.10;99.90;;;;;;4916719;28;20121;-65
2023/04/25 03:40:06;;;;;;;10.73;3.10;;;5.00;99.90;;;;;;4932232;28;20136;-66
2023/04/25 03:42:32;;;;;;;16.17;3.10;;;5.00;99.90;;;;;;4935799;28;20148;-66
2023/04/25 03:44:58;;;;;;;14.27;2.67;;;4.80;99.90;;;;;;4918697;28;20050;-66
2023/04/25 03:47:23;;;;;;;13.13;2.65;;;4.80;99.90;;;;;;4935439;28;20088;-66
2023/04/25 03:49:51;;;;;;;14.88;2.92;;;4.80;99.90;;;;;;4936378;28;20081;-66
2023/04/25 03:52:18;;;;;;;10.68;2.30;;;4.80;99.90;;;;;;4905112;28;20238;-66
2023/04/25 03:54:44;;;;;;;15.63;2.80;;;4.70;99.90;;;;;;4917808;28;20517;-66
2023/04/25 03:57:10;;;;;;;12.52;2.67;;;4.70;99.90;;;;;;4938464;28;20042;-66
2023/04/25 03:59:35;;;;;;;16.17;2.70;;;4.60;99.90;;;;;;4919194;28;20460;-66
2023/04/25 04:02:01;;;;;;;11.93;2.63;;;4.60;99.90;;;;;;4934952;28;20137;-66
2023/04/25 04:04:27;;;;;;;10.50;2.15;;;4.60;99.90;;;;;;4932340;28;24978;-66
2023/04/25 04:06:53;;;;;;;15.25;2.60;;;4.60;99.90;;;;;;4933964;28;20054;-66
2023/04/25 04:09:20;;;;;;;13.55;2.58;;;4.50;99.90;;;;;;4922490;28;20054;-65
2023/04/25 04:11:46;;;;;;;17.70;3.13;;;4.50;99.90;;;;;;4933862;28;20061;-66
2023/04/25 04:14:11;;;;;;;13.30;3.20;;;4.50;99.90;;;;;;4930142;28;20069;-66
2023/04/25 04:16:37;;;;;;;13.70;2.95;;;4.50;99.90;;;;;;4925841;28;20050;-65
2023/04/25 04:19:03;;;;;;;11.73;2.78;;;4.40;99.90;;;;;;4919564;28;20150;-66
2023/04/25 04:21:29;;;;;;;16.80;3.22;;;4.30;99.90;;;;;;4917903;28;20055;-66
2023/04/25 04:23:57;;;;;;;13.48;3.05;;;4.30;99.90;;;;;;4922043;28;20485;-66
2023/04/25 04:26:23;;;;;;;12.52;2.97;;;4.30;99.90;;;;;;4901911;28;20170;-65
2023/04/25 04:28:54;;;;;;;18.42;3.40;;;4.30;99.90;;;;;;4931342;28;21031;-66
2023/04/25 04:31:23;;;;;;;18.63;2.92;;;4.20;99.90;;;;;;4905863;28;20058;-65
2023/04/25 04:33:50;;;;;;;18.92;2.85;;;4.30;99.90;;;;;;4940054;28;20065;-66
2023/04/25 04:36:19;;;;;;;14.60;3.38;;;4.20;99.90;;;;;;4930375;28;20050;-66
2023/04/25 04:38:45;;;;;;;11.80;2.65;;;4.20;99.90;;;;;;4912854;28;20082;-66
2023/04/25 04:41:11;;;;;;;16.50;2.83;;;4.20;99.90;;;;;;4926925;28;20333;-66
2023/04/25 04:43:37;;;;;;;20.65;3.17;;;4.20;99.90;;;;;;4933060;28;20046;-66
2023/04/25 04:46:06;;;;;;;16.75;2.80;;;4.20;99.90;;;;;;4897263;28;20169;-66
2023/04/25 04:48:34;;;;;;;12.02;2.70;;;4.10;99.90;;;;;;4937328;28;20177;-66
2023/04/25 04:51:00;;;;;;;13.13;2.80;;;4.20;99.90;;;;;;4915400;28;20090;-66
2023/04/25 04:53:26;;;;;;;14.35;3.28;;;4.20;99.90;;;;;;4925801;28;21822;-66
2023/04/25 04:55:52;;;;;;;14.88;2.85;;;4.20;99.90;;;;;;4928236;28;20129;-65
2023/04/25 04:58:18;;;;;;;16.00;2.75;;;4.20;99.90;;;;;;4926669;28;20436;-65
2023/04/25 05:00:44;;;;;;;14.70;2.97;;;4.20;99.90;;;;;;4944182;28;20677;-66
2023/04/25 05:03:11;;;;;;;10.13;2.50;;;4.30;99.90;;;;;;4922816;28;20117;-66
2023/04/25 05:05:39;;;;;;;10.38;2.38;;;4.40;99.90;;;;;;4940935;28;20046;-65
2023/04/25 05:08:06;;;;;;;13.75;2.03;;;4.40;99.90;;;;;;4943741;28;20090;-66
2023/04/25 05:10:31;;;;;;;11.02;2.17;;;4.40;99.90;;;;;;4944639;28;20053;-66
2023/04/25 05:12:57;;;;;;;6.25;1.95;;;4.40;99.90;;;;;;4927702;28;20050;-66
2023/04/25 05:15:23;;;;;;;4.68;1.50;;;4.40;99.90;;;;;;4939290;28;20868;-66
2023/04/25 05:17:49;;;;;;;6.75;1.48;;;4.40;99.90;;;;;;4922468;28;20057;-65
2023/04/25 05:20:15;;;;;;;3.85;1.77;;;4.40;99.90;;;;;;4940120;28;20057;-66
2023/04/25 05:22:41;;;;;;;6.15;1.70;;;4.40;99.90;;;;;;4910772;28;20050;-65
2023/04/25 05:25:09;;;;;;;8.10;1.65;;;4.30;99.90;;;;;;4944238;28;20690;-66
2023/04/25 05:27:35;;;;;;;6.22;1.52;;;4.40;99.90;;;;;;4934046;28;20185;-65
2023/04/25 05:30:00;;;;;;;6.10;1.50;;;4.30;99.90;;;;;;4934766;28;20085;-65
2023/04/25 05:32:26;;;;;;;7.57;1.65;;;4.40;99.90;;;;;;4945238;28;20483;-66
2023/04/25 05:34:52;;;;;;;8.25;1.50;;;4.30;99.90;;;;;;4942951;28;20050;-65
2023/04/25 05:37:18;;;;;;;5.95;2.03;;;4.30;99.90;;;;;;4945439;28;20053;-66
2023/04/25 05:39:44;;;;;;;9.68;2.00;;;4.40;99.90;;;;;;4944646;28;20070;-65
2023/04/25 05:42:10;;;;;;;8.25;1.80;;;4.40;99.90;;;;;;4941439;28;20051;-66
2023/04/25 05:44:36;;;;;;;9.75;2.03;;;4.40;99.90;;;;;;4943792;28;20046;-65
2023/04/25 05:47:01;;;;;;;10.90;1.98;;;4.50;99.90;;;;;;4925645;28;20053;-65
2023/04/25 05:49:27;;;;;;;7.35;1.80;;;4.60;99.90;;;;;;4942754;28;20056;-66
2023/04/25 05:51:53;;;;;;;7.47;2.10;;;4.60;99.90;;;;;;4942136;28;20391;-65
2023/04/25 05:54:18;;;;;;;7.75;2.25;;;4.70;99.90;;;;;;4940480;28;20043;-65
2023/04/25 05:56:44;;;;;;;9.27;1.83;;;4.80;99.90;;;;;;4935081;28;20923;-65
2023/04/25 05:59:10;;;;;;;8.23;1.92;;;4.80;99.90;;;;;;4934621;28;20054;-65
2023/04/25 06:01:36;;;;;;;9.70;1.45;;;4.80;99.90;;;;;;4935342;28;20061;-65
2023/04/25 06:04:02;;;;;;;10.52;1.90;;;4.90;99.90;;;;;;4947509;28;20061;-65
2023/04/25 06:06:28;;;;;;;10.52;2.17;;;4.90;99.90;;;;;;4950326;28;20053;-65
2023/04/25 06:08:54;;;;;;;11.15;1.92;;;4.90;99.90;;;;;;4935551;28;20093;-65
2023/04/25 06:11:20;;;;;;;8.50;1.85;;;5.00;99.90;;;;;;4912948;28;20054;-65
2023/04/25 06:13:46;;;;;;;11.88;2.28;;;5.00;99.90;;;;;;4946165;28;20083;-65
2023/04/25 06:16:11;;;;;;;10.98;2.20;;;5.00;99.90;;;;;;4944029;28;20051;-65
2023/04/25 06:18:37;;;;;;;11.85;2.50;;;5.00;99.90;;;;;;4928863;28;20464;-65
2023/04/25 06:21:03;;;;;;;16.13;2.13;;;5.00;99.90;;;;;;4931713;28;20181;-65
2023/04/25 06:23:29;;;;;;;8.15;1.80;;;5.00;99.90;;;;;;4932507;28;21714;-65
2023/04/25 06:25:54;;;;;;;13.98;2.33;;;5.10;99.90;;;;;;4944540;28;20042;-65
2023/04/25 06:28:21;;;;;;;13.23;2.28;;;5.20;99.90;;;;;;4944734;28;20050;-65
2023/04/25 06:30:47;;;;;;;12.25;2.15;;;5.30;99.90;;;;;;4943612;28;20041;-65
2023/04/25 06:33:13;;;;;;;10.40;2.13;;;5.40;99.90;;;;;;4947097;28;21807;-65
2023/04/25 06:35:39;;;;;;;14.63;3.03;;;5.60;99.90;;;;;;4947192;28;20400;-65
2023/04/25 06:38:05;;;;;;;12.93;2.30;;;5.80;99.90;;;;;;4945698;28;20062;-65
2023/04/25 06:40:30;;;;;;;10.25;2.40;;;6.00;99.90;;;;;;4947069;28;20152;-66
2023/04/25 06:42:56;;;;;;;15.65;2.42;;;6.10;99.90;;;;;;4944614;28;20054;-65
2023/04/25 06:45:22;;;;;;;14.98;2.90;;;6.20;99.90;;;;;;4947419;28;20493;-66
2023/04/25 06:47:47;;;;;;;18.73;2.50;;;6.30;99.90;;;;;;4945475;28;20046;-66
2023/04/25 06:50:13;;;;;;;14.15;2.20;;;6.30;99.90;;;;;;4932085;28;20050;-65
2023/04/25 06:52:39;;;;;;;14.60;2.20;;;6.30;99.90;;;;;;4942223;28;20050;-65
2023/04/25 06:55:05;;;;;;;9.50;1.80;;;6.30;99.90;;;;;;4930164;28;20054;-65
2023/04/25 06:57:31;;;;;;;11.15;1.75;;;6.30;99.90;;;;;;4944142;28;20188;-65
2023/04/25 06:59:56;;;;;;;10.90;2.00;;;6.30;99.90;;;;;;4939340;28;20482;-65
2023/04/25 07:02:22;;;;;;;10.98;1.60;;;6.40;99.90;;;;;;4924152;28;20133;-65
2023/04/25 07:04:48;;;;;;;11.45;1.83;;;6.50;99.90;;;;;;4943304;28;20043;-66
2023/04/25 07:07:13;;;;;;;10.75;2.25;;;6.50;99.90;;;;;;4952791;28;20097;-66
2023/04/25 07:09:39;;;;;;;10.30;2.30;;;6.60;99.90;;;;;;4941242;28;20047;-66
2023/04/25 07:12:05;;;;;;;6.68;1.80;;;6.70;99.90;;;;;;4938056;28;20069;-65
2023/04/25 07:14:31;;;;;;;10.52;1.67;;;6.70;99.90;;;;;;4960444;28;20133;-65
2023/04/25 07:16:57;;;;;;;8.20;1.42;;;6.80;99.90;;;;;;4938006;28;20134;-65
2023/04/25 07:19:26;;;;;;;4.15;1.30;;;6.80;99.90;;;;;;4953941;28;20054;-65
2023/04/25 07:21:52;;;;;;;7.32;1.60;;;6.90;99.90;;;;;;4952910;28;20076;-65
2023/04/25 07:24:18;;;;;;;6.85;1.60;;;6.90;99.90;;;;;;4939069;28;20121;-65
2023/04/25 07:26:44;;;;;;;9.60;1.42;;;7.00;99.90;;;;;;4936217;28;20053;-66
2023/04/25 07:29:10;;;;;;;15.90;2.25;;;7.00;99.90;;;;;;4945240;28;20501;-65
2023/04/25 07:31:36;;;;;;;5.25;1.55;;;7.00;99.90;;;;;;4930564;28;20080;-65
2023/04/25 07:34:02;;;;;;;7.43;1.52;;;7.10;99.90;;;;;;4940594;28;20049;-65
2023/04/25 07:36:27;;;;;;;11.63;1.63;;;7.10;99.90;;;;;;4944906;28;20042;-65
2023/04/25 07:38:53;;;;;;;9.15;1.65;;;7.20;99.90;;;;;;4934856;28;20586;-59
2023/04/25 07:41:19;;;;;;;9.38;1.38;;;7.30;99.90;;;;;;4949799;28;20046;-62
2023/04/25 07:43:45;;;;;;;3.00;1.23;;;7.30;99.90;;;;;;4949568;28;20042;-63
2023/04/25 07:46:10;;;;;;;11.20;1.45;;;7.30;99.90;;;;;;4949042;28;20201;-63
2023/04/25 07:48:36;;;;;;;9.23;1.60;;;7.10;99.90;;;;;;4934156;28;20107;-62
2023/04/25 07:51:04;;;;;;;6.70;1.52;;;7.10;99.90;;;;;;4934923;28;20038;-63
2023/04/25 07:53:30;;;;;;;11.02;1.55;;;7.10;99.90;;;;;;4950822;28;20074;-63
2023/04/25 07:55:56;;;;;;;5.60;1.17;;;7.10;99.90;;;;;;4947968;28;20153;-63
2023/04/25 07:58:21;;;;;;;4.38;1.27;;;7.10;99.90;;;;;;4948285;28;20105;-63
2023/04/25 08:00:48;;;;;;;11.68;2.00;;;7.20;99.90;;;;;;4955066;28;20046;-62
2023/04/25 08:03:14;;;;;;;8.20;2.00;;;7.50;99.90;;;;;;4948066;28;20132;-63
2023/04/25 08:05:39;;;;;;;8.32;1.48;;;7.60;99.90;;;;;;4949751;28;20046;-60
2023/04/25 08:08:06;;;;;;;4.28;1.05;;;7.60;99.90;;;;;;4959060;28;20141;-64
2023/04/25 08:10:32;;;;;;;2.80;1.00;;;7.50;99.90;;;;;;4937873;28;20054;-64
2023/04/25 08:12:59;;;;;;;3.83;1.02;;;7.20;99.90;;;;;;4942139;28;20137;-64
2023/04/25 08:15:25;;;;;;;6.97;1.50;;;6.80;99.90;;;;;;4929688;28;20146;-64
2023/04/25 08:17:51;;;;;;;4.72;1.13;;;6.50;99.90;;;;;;4940836;28;21016;-64
2023/04/25 08:20:16;;;;;;;6.38;1.30;;;6.40;99.90;;;;;;4941446;28;20096;-64
2023/04/25 08:22:43;;;;;;;2.53;1.02;;;6.20;99.90;;;;;;4933477;28;20050;-64
2023/04/25 08:25:08;;;;;;;3.00;1.10;;;6.20;99.90;;;;;;4940939;28;20633;-64
2023/04/25 08:27:34;;;;;;;5.05;1.13;;;6.20;99.90;;;;;;4906183;28;20169;-64
2023/04/25 08:30:02;;;;;;;4.57;1.20;;;6.20;99.90;;;;;;4923926;28;20824;-64
2023/04/25 08:32:27;;;;;;;5.93;1.20;;;6.30;99.90;;;;;;4937498;28;20089;-64
2023/04/25 08:34:55;;;;;;;4.00;1.23;;;6.40;99.90;;;;;;4943144;28;20136;-64
2023/04/25 08:37:21;;;;;;;3.58;1.27;;;6.40;99.90;;;;;;4928223;28;20053;-64
2023/04/25 08:39:52;;;;;;;6.28;1.58;;;6.50;99.90;;;;;;4946899;28;20161;-64
2023/04/25 08:42:18;;;;;;;3.58;1.13;;;6.60;99.90;;;;;;4944995;28;21008;-64
2023/04/25 08:44:46;;;;;;;4.78;1.17;;;6.80;99.90;;;;;;4947985;28;20046;-64
2023/04/25 08:47:12;;;;;;;5.63;1.38;;;7.00;99.90;;;;;;4949811;28;21434;-64
2023/04/25 08:49:39;;;;;;;5.75;1.63;;;7.10;99.90;;;;;;4914533;28;20042;-64
2023/04/25 08:52:06;;;;;;;9.88;1.77;;;7.20;99.90;;;;;;4930857;28;20489;-64
2023/04/25 08:54:32;;;;;;;7.45;2.03;;;7.30;99.90;;;;;;4936319;28;20794;-64
2023/04/25 08:57:05;;;;;;;16.73;2.03;;;7.30;99.90;;;;;;4938028;28;20044;-62
2023/04/25 08:59:32;;;;;;;11.45;1.90;;;7.50;99.90;;;;;;4940574;28;20042;-64
2023/04/25 09:01:57;;;;;;;5.13;1.63;;;7.60;99.90;;;;;;4951949;28;20043;-64
2023/04/25 09:04:23;;;;;;;9.43;1.85;;;7.80;99.90;;;;;;4933825;28;21109;-64
2023/04/25 09:06:49;;;;;;;9.63;1.90;;;8.10;99.90;;;;;;4933784;28;20047;-64
2023/04/25 09:09:15;;;;;;;10.43;1.70;;;8.30;99.90;;;;;;4935510;28;23480;-64
2023/04/25 09:11:41;;;;;;;14.27;2.00;;;8.50;99.90;;;;;;4918656;28;20061;-64
2023/04/25 09:14:25;;;;;;;11.25;1.85;;;8.70;99.90;;;;;;4932220;28;20051;-64
2023/04/25 09:17:01;;;;;;;12.88;2.50;;;8.80;99.90;;;;;;4933634;28;20043;-64
2023/04/25 09:19:33;;;;;;;12.70;2.28;;;8.90;99.90;;;;;;4936442;28;20042;-64
2023/04/25 09:22:00;;;;;;;13.77;2.13;;;9.00;99.90;;;;;;4938732;28;20070;-64
2023/04/25 09:24:49;;;;;;;14.88;2.00;;;9.10;99.90;;;;;;4955337;28;20039;-64
2023/04/25 09:27:22;;;;;;;8.80;1.80;;;9.10;99.90;;;;;;4937856;28;20128;-64
2023/04/25 09:29:48;;;;;;;;;;;8.90;99.90;;;;;;4944809;28;20109;-64
2023/04/25 09:32:21;;;;;;;13.10;2.40;;;8.60;99.90;;;;;;4925234;28;19980;-63
2023/04/25 09:34:52;;;;;;;8.73;2.10;;;8.30;99.90;;;;;;4956364;28;20061;-64
2023/04/25 09:37:23;;;;;;;8.05;1.60;;;8.20;99.90;;;;;;4925179;28;20050;-64
2023/04/25 09:39:50;;;;;;;13.30;2.08;;;8.30;99.90;;;;;;4938996;28;20050;-63
2023/04/25 09:42:16;;;;;;;7.63;1.92;;;8.60;99.90;;;;;;4941244;28;20502;-64
2023/04/25 09:44:46;;;;;;;12.30;2.75;;;8.80;99.90;;;;;;4939904;28;20050;-64
2023/04/25 09:47:17;;;;;;;11.63;2.08;;;9.00;99.90;;;;;;4939372;28;20039;-64
2023/04/25 09:49:44;;;;;;;9.13;1.80;;;9.10;99.90;;;;;;4937064;28;20049;-63
2023/04/25 09:52:15;;;;;;;10.82;2.00;;;9.10;99.90;;;;;;4939455;28;20054;-64
2023/04/25 09:54:41;;;;;;;14.38;2.20;;;9.10;99.90;;;;;;4935233;28;20046;-64
2023/04/25 09:57:16;;;;;;;10.32;2.03;;;9.20;99.90;;;;;;4930078;28;20057;-63
2023/04/25 09:59:47;;;;;;;7.30;1.92;;;9.30;99.90;;;;;;4936495;28;22155;-64
2023/04/25 10:02:15;;;;;;;13.30;2.03;;;9.50;99.90;;;;;;4907069;28;20035;-64
2023/04/25 10:04:42;;;;;;;16.85;2.53;;;9.60;99.90;;;;;;4934774;28;20838;-64
2023/04/25 10:07:09;;;;;;;12.93;2.22;;;9.70;99.90;;;;;;4929661;28;20720;-64
2023/04/25 10:09:37;;;;;;;12.25;2.20;;;9.90;99.90;;;;;;4933584;28;20132;-64
2023/04/25 10:12:04;;;;;;;10.75;2.03;;;10.00;99.90;;;;;;4930400;28;20954;-63
2023/04/25 10:14:31;;;;;;;7.45;2.10;;;10.10;99.90;;;;;;4952368;28;20141;-64
2023/04/25 10:16:59;;;;;;;10.07;2.05;;;9.90;99.90;;;;;;4905064;28;20137;-64
2023/04/25 10:19:26;;;;;;;10.85;2.10;;;9.70;99.90;;;;;;4933809;28;20076;-63
2023/04/25 10:22:11;;;;;;;9.77;1.98;;;9.40;99.90;;;;;;4934903;28;20133;-64
2023/04/25 10:24:38;;;;;;;9.85;2.10;;;9.10;99.90;;;;;;4936376;28;20116;-64
2023/04/25 10:27:05;;;;;;;10.38;1.90;;;9.10;99.90;;;;;;4945275;28;20045;-64
2023/04/25 10:29:31;;;;;;;9.00;2.13;;;9.20;99.90;;;;;;4939691;28;20082;-64
2023/04/25 10:31:57;;;;;;;12.27;1.98;;;9.40;99.90;;;;;;4945888;28;20049;-64
2023/04/25 10:34:46;;;;;;;13.00;1.95;;;9.70;99.90;;;;;;4930604;28;24986;-64
2023/04/25 10:37:13;;;;;;;10.07;2.30;;;10.00;99.90;;;;;;4939863;28;20135;-64
2023/04/25 10:39:41;;;;;;;9.38;1.83;;;10.10;99.90;;;;;;4937190;28;20061;-64
2023/04/25 10:42:07;;;;;;;10.60;1.60;;;10.10;99.90;;;;;;4946600;28;20050;-64
2023/04/25 10:44:34;;;;;;;8.60;1.60;;;9.90;99.90;;;;;;4929298;28;20054;-64
2023/04/25 10:47:02;;;;;;;8.32;2.10;;;9.40;99.90;;;;;;4955411;28;20042;-64
2023/04/25 10:49:33;;;;;;;4.43;1.50;;;9.00;99.90;;;;;;4939890;28;20046;-64
2023/04/25 10:52:18;;;;;;;9.32;1.60;;;8.70;99.90;;;;;;4943142;28;20189;-64
2023/04/25 10:54:52;;;;;;;10.77;1.73;;;8.50;99.90;;;;;;4956904;28;20185;-61
2023/04/25 10:57:31;;;;;;;10.90;2.25;;;8.50;99.90;;;;;;4943877;28;21134;-63
2023/04/25 11:00:12;;;;;;;9.50;2.05;;;8.70;99.90;;;;;;4928749;28;20121;-62
2023/04/25 11:02:48;;;;;;;11.48;1.90;;;9.10;99.90;;;;;;4930415;28;20050;-61
2023/04/25 11:05:26;;;;;;;11.63;1.98;;;9.40;99.90;;;;;;4936852;28;20046;-62
2023/04/25 11:07:56;;;;;;;6.65;1.50;;;9.70;99.90;;;;;;4942479;28;20061;-62
2023/04/25 11:10:26;;;;;;;5.15;1.50;;;10.00;99.90;;;;;;4938892;28;20088;-63
2023/04/25 11:12:51;;;;;;;8.43;1.90;;;10.20;99.90;;;;;;4920152;28;20180;-62
2023/04/25 11:15:17;;;;;;;11.23;1.88;;;10.40;99.90;;;;;;4925386;28;20046;-63
2023/04/25 11:17:46;;;;;;;6.57;1.60;;;10.50;99.90;;;;;;4928342;28;20056;-61
2023/04/25 11:20:14;;;;;;;13.77;2.08;;;10.60;99.90;;;;;;4925919;28;20057;-62
2023/04/25 11:22:41;;;;;;;8.73;1.65;;;10.80;99.90;;;;;;4938960;28;20081;-61
2023/04/25 11:25:08;;;;;;;10.02;1.52;;;10.90;99.50;;;;;;4937676;28;22282;-62
2023/04/25 11:27:36;;;;;;;8.93;2.05;;;11.00;98.50;;;;;;4926706;28;20043;-62
2023/04/25 11:30:15;;;;;;;9.00;1.60;;;11.10;98.80;;;;;;4937754;28;20850;-63
2023/04/25 11:32:41;;;;;;;14.18;1.80;;;11.30;99.20;;;;;;4938242;28;21068;-62
2023/04/25 11:35:08;;;;;;;7.10;1.67;;;11.40;98.70;;;;;;4944472;28;20062;-62
2023/04/25 11:37:34;;;;;;;7.85;1.75;;;11.60;97.90;;;;;;4936128;28;20097;-63
2023/04/25 11:40:00;;;;;;;10.23;1.70;;;11.50;97.20;;;;;;4935926;28;20051;-63
2023/04/25 11:42:26;;;;;;;15.90;2.25;;;11.40;96.00;;;;;;4930742;28;20400;-62
2023/04/25 11:44:52;;;;;;;5.32;1.63;;;11.30;97.00;;;;;;4939816;28;20046;-63
2023/04/25 11:47:18;;;;;;;10.35;2.22;;;11.50;96.90;;;;;;4944982;28;20042;-61
2023/04/25 11:49:43;;;;;;;14.18;1.95;;;11.60;96.90;;;;;;4945758;28;20054;-62
2023/04/25 11:52:09;;;;;;;8.50;1.50;;;11.80;97.00;;;;;;4942879;28;20050;-64
2023/04/25 11:54:36;;;;;;;8.18;1.60;;;11.90;95.90;;;;;;4961366;28;20054;-63
2023/04/25 11:57:04;;;;;;;9.07;1.70;;;12.00;94.90;;;;;;4937951;28;20104;-62
2023/04/25 11:59:29;;;;;;;8.00;1.48;;;12.00;94.30;;;;;;4952708;28;20042;-63
2023/04/25 12:01:57;;;;;;;8.45;1.98;;;12.10;93.80;;;;;;4938856;28;20120;-61
2023/04/25 12:04:24;;;;;;;10.50;1.67;;;12.20;93.60;;;;;;4947109;28;20089;-63
2023/04/25 12:06:53;;;;;;;6.90;1.50;;;12.40;93.30;;;;;;4930373;28;20465;-62
2023/04/25 12:09:37;;;;;;;13.18;1.88;;;12.50;93.70;;;;;;4945935;28;20059;-62
2023/04/25 12:12:02;;;;;;;9.20;1.90;;;12.70;93.90;;;;;;4952596;28;20133;-63
2023/04/25 12:14:31;;;;;;;6.93;1.50;;;12.80;93.10;;;;;;4953889;28;20095;-62
2023/04/25 12:16:58;;;;;;;6.65;1.45;;;12.90;92.80;;;;;;4949338;28;20360;-63
2023/04/25 12:19:25;;;;;;;7.90;1.33;;;13.00;92.80;;;;;;4956535;28;20078;-63
2023/04/25 12:21:51;;;;;;;9.02;1.98;;;13.20;91.80;;;;;;4956578;28;20038;-63
2023/04/25 12:24:23;;;;;;;8.73;1.75;;;13.30;89.00;;;;;;4971578;28;20053;-63
2023/04/25 12:27:03;;;;;;;9.25;2.15;;;13.30;89.30;;;;;;4952717;28;20043;-63
2023/04/25 12:29:32;;;;;;;8.80;1.73;;;13.30;89.50;;;;;;4951728;28;20043;-62
2023/04/25 12:31:59;;;;;;;7.07;1.88;;;13.00;90.00;;;;;;4950426;28;20730;-63
2023/04/25 12:34:25;;;;;;;11.18;2.28;;;12.90;90.40;;;;;;4939962;28;20138;-62
2023/04/25 12:36:52;;;;;;;6.90;1.90;;;12.90;91.40;;;;;;4953325;28;20157;-62
2023/04/25 12:39:21;;;;;;;7.80;1.75;;;13.10;91.00;;;;;;4966010;28;20078;-62
2023/04/25 12:41:54;;;;;;;11.02;1.90;;;13.30;90.90;;;;;;4951954;28;20042;-62
2023/04/25 12:44:20;;;;;;;6.65;1.52;;;13.50;90.30;;;;;;4954790;28;20065;-62
2023/04/25 12:46:47;;;;;;;10.60;1.50;;;13.60;88.70;;;;;;4926873;28;20038;-63